Time;durP1;ratioP1;P1;durP2;ratioP2;P2;SDS_P1;SDS_P2;PMS_P1;PMS_P2;Temp;Humidity;BMP_temperature;BMP_pressure;BME280_temperature;BME280_humidity;BME280_pressure;Samples;Min_cycle;Max_cycle;Signal;HPM_P1;HPM_P2
2021/10/08 00:01:43;;;;;;;3.47;3.17;;;;;;;;;;5046352;28;20294;-65
2021/10/08 00:04:17;;;;;;;3.20;2.90;;;;;;;;;;5048745;28;20225;-65
2021/10/08 00:06:50;;;;;;;3.33;3.03;;;;;;;;;;5047254;28;20718;-65
2021/10/08 00:09:22;;;;;;;3.63;3.33;;;;;;;;;;5069826;28;20209;-65
2021/10/08 00:11:53;;;;;;;3.27;2.97;;;;;;;;;;5049264;28;20218;-66
2021/10/08 00:14:24;;;;;;;3.20;3.00;;;;;;;;;;5068796;28;20224;-65
2021/10/08 00:16:54;;;;;;;3.00;2.80;;;;;;;;;;5083648;28;20516;-65
2021/10/08 00:19:23;;;;;;;3.20;2.83;;;;;;;;;;5065245;28;20237;-65
2021/10/08 00:21:53;;;;;;;3.13;2.93;;;;;;;;;;5082028;28;20205;-66
2021/10/08 00:24:25;;;;;;;3.10;2.83;;;;;;;;;;5068791;28;20701;-65
2021/10/08 00:26:55;;;;;;;3.33;3.03;;;;;;;;;;5064328;28;20208;-66
2021/10/08 00:29:26;;;;;;;3.50;3.20;;;;;;;;;;5063105;28;20225;-65
2021/10/08 00:31:58;;;;;;;3.50;3.20;;;;;;;;;;5064979;28;20223;-65
2021/10/08 00:34:27;;;;;;;2.97;2.77;;;;;;;;;;5065593;28;20204;-66
2021/10/08 00:36:59;;;;;;;3.37;3.07;;;;;;;;;;5058611;28;20294;-66
2021/10/08 00:39:33;;;;;;;3.47;3.17;;;;;;;;;;5057288;28;20249;-66
2021/10/08 00:42:06;;;;;;;3.17;2.90;;;;;;;;;;5066473;28;20236;-65
2021/10/08 00:44:38;;;;;;;3.40;3.10;;;;;;;;;;5059889;28;20225;-65
2021/10/08 00:47:14;;;;;;;3.50;3.20;;;;;;;;;;5052302;28;20200;-65
2021/10/08 00:49:52;;;;;;;3.30;3.00;;;;;;;;;;5065335;28;20633;-65
2021/10/08 00:52:25;;;;;;;2.80;2.60;;;;;;;;;;5071143;28;20205;-65
2021/10/08 00:54:55;;;;;;;2.80;2.60;;;;;;;;;;5063399;28;20231;-66
2021/10/08 00:57:25;;;;;;;3.00;2.80;;;;;;;;;;5067416;28;20223;-65
2021/10/08 00:59:57;;;;;;;3.47;3.17;;;;;;;;;;5067084;28;20212;-66
2021/10/08 01:02:40;;;;;;;3.23;3.03;;;;;;;;;;5065510;28;20245;-65
2021/10/08 01:05:12;;;;;;;3.33;3.03;;;;;;;;;;5067307;28;20602;-66
2021/10/08 01:07:42;;;;;;;2.90;2.70;;;;;;;;;;5065238;28;20287;-66
2021/10/08 01:10:13;;;;;;;3.20;3.00;;;;;;;;;;5069598;28;20614;-65
2021/10/08 01:12:45;;;;;;;3.47;2.80;;;;;;;;;;5030125;28;20204;-66
2021/10/08 01:15:16;;;;;;;2.93;2.73;;;;;;;;;;5070129;28;20255;-66
2021/10/08 01:17:44;;;;;;;3.40;3.10;;;;;;;;;;5068253;28;20207;-66
2021/10/08 01:20:18;;;;;;;2.97;2.77;;;;;;;;;;5066273;28;20220;-66
2021/10/08 01:22:47;;;;;;;2.97;2.77;;;;;;;;;;5066268;28;20230;-66
2021/10/08 01:25:17;;;;;;;3.40;3.10;;;;;;;;;;5068125;28;20211;-65
2021/10/08 01:27:45;;;;;;;2.70;2.50;;;;;;;;;;5066054;28;20234;-66
2021/10/08 01:30:14;;;;;;;3.17;2.87;;;;;;;;;;5066813;28;20228;-66
2021/10/08 01:32:47;;;;;;;2.97;2.70;;;;;;;;;;5046538;28;20892;-66
2021/10/08 01:35:19;;;;;;;2.60;2.40;;;;;;;;;;5054046;28;20224;-65
2021/10/08 01:37:52;;;;;;;2.90;2.70;;;;;;;;;;5072080;28;20597;-65
2021/10/08 01:40:25;;;;;;;2.90;2.70;;;;;;;;;;5070065;28;20215;-66
2021/10/08 01:42:56;;;;;;;3.03;2.83;;;;;;;;;;5065709;28;20221;-66
2021/10/08 01:45:30;;;;;;;3.10;2.90;;;;;;;;;;5068261;28;20220;-66
2021/10/08 01:47:59;;;;;;;2.57;2.37;;;;;;;;;;5071926;28;20231;-66
2021/10/08 01:50:31;;;;;;;2.70;2.50;;;;;;;;;;5067639;28;20217;-66
2021/10/08 01:53:01;;;;;;;3.20;3.00;;;;;;;;;;5074305;28;20202;-66
2021/10/08 01:55:30;;;;;;;2.90;2.70;;;;;;;;;;5068839;28;20669;-66
2021/10/08 01:57:59;;;;;;;2.70;2.50;;;;;;;;;;5091297;28;20205;-66
2021/10/08 02:00:29;;;;;;;2.80;2.60;;;;;;;;;;5089105;28;20209;-66
2021/10/08 02:03:02;;;;;;;2.73;2.53;;;;;;;;;;5074314;28;20267;-65
2021/10/08 02:05:33;;;;;;;3.13;2.83;;;;;;;;;;5093127;28;20206;-65
2021/10/08 02:08:04;;;;;;;2.90;2.70;;;;;;;;;;5099783;28;20578;-65
2021/10/08 02:10:34;;;;;;;2.90;2.70;;;;;;;;;;5088457;28;20624;-66
2021/10/08 02:13:04;;;;;;;2.83;2.60;;;;;;;;;;5089884;28;20231;-65
2021/10/08 02:15:35;;;;;;;2.43;2.23;;;;;;;;;;5091160;28;20233;-66
2021/10/08 02:18:07;;;;;;;2.77;2.57;;;;;;;;;;5068225;28;20208;-66
2021/10/08 02:20:39;;;;;;;3.10;2.90;;;;;;;;;;5086075;28;20227;-66
2021/10/08 02:23:13;;;;;;;3.07;2.87;;;;;;;;;;5088210;28;20221;-65
2021/10/08 02:25:45;;;;;;;2.90;2.70;;;;;;;;;;5070714;28;20214;-66
2021/10/08 02:28:12;;;;;;;2.70;2.50;;;;;;;;;;5086855;28;20816;-66
2021/10/08 02:30:43;;;;;;;2.47;2.27;;;;;;;;;;5086763;28;20210;-65
2021/10/08 02:33:16;;;;;;;2.80;2.47;;;;;;;;;;5091856;28;20224;-66
2021/10/08 02:35:47;;;;;;;2.60;2.40;;;;;;;;;;5088918;28;20227;-65
2021/10/08 02:38:19;;;;;;;2.83;2.63;;;;;;;;;;5088255;28;20638;-66
2021/10/08 02:40:52;;;;;;;2.83;2.60;;;;;;;;;;5072946;28;20664;-66
2021/10/08 02:43:24;;;;;;;2.40;2.20;;;;;;;;;;5087302;28;20224;-65
2021/10/08 02:45:55;;;;;;;2.50;2.30;;;;;;;;;;5056112;28;20212;-66
2021/10/08 02:48:24;;;;;;;2.20;2.10;;;;;;;;;;5089838;28;21070;-66
2021/10/08 02:50:57;;;;;;;2.40;2.20;;;;;;;;;;5088976;28;20565;-66
2021/10/08 02:53:28;;;;;;;2.57;2.37;;;;;;;;;;5091815;28;20652;-65
2021/10/08 02:55:58;;;;;;;2.27;2.07;;;;;;;;;;5080802;28;20247;-65
2021/10/08 02:58:27;;;;;;;2.50;2.20;;;;;;;;;;5051209;28;20366;-66
2021/10/08 03:00:59;;;;;;;2.53;2.30;;;;;;;;;;5052738;28;20217;-66
2021/10/08 03:03:31;;;;;;;2.37;2.17;;;;;;;;;;5070505;28;20194;-65
2021/10/08 03:06:02;;;;;;;2.20;2.10;;;;;;;;;;5067737;28;20543;-66
2021/10/08 03:08:33;;;;;;;2.53;2.33;;;;;;;;;;5065227;28;20221;-65
2021/10/08 03:11:05;;;;;;;2.50;2.30;;;;;;;;;;5069662;28;20234;-65
2021/10/08 03:13:38;;;;;;;2.30;2.10;;;;;;;;;;5070605;28;20209;-66
2021/10/08 03:16:09;;;;;;;2.37;2.17;;;;;;;;;;5067470;28;20270;-66
2021/10/08 03:18:38;;;;;;;2.37;2.27;;;;;;;;;;5064583;28;20215;-66
2021/10/08 03:21:10;;;;;;;2.10;2.00;;;;;;;;;;5050406;28;20230;-66
2021/10/08 03:23:44;;;;;;;1.77;1.67;;;;;;;;;;5059213;28;20200;-65
2021/10/08 03:26:20;;;;;;;2.30;2.13;;;;;;;;;;5073686;28;20212;-66
2021/10/08 03:28:53;;;;;;;2.20;2.10;;;;;;;;;;5059759;28;20299;-66
2021/10/08 03:31:28;;;;;;;2.20;2.10;;;;;;;;;;5068119;28;20255;-68
2021/10/08 03:34:02;;;;;;;1.80;1.70;;;;;;;;;;5068542;28;20677;-66
2021/10/08 03:36:46;;;;;;;2.33;2.13;;;;;;;;;;5080263;28;20222;-65
2021/10/08 03:39:27;;;;;;;1.90;1.80;;;;;;;;;;5069914;28;20216;-67
2021/10/08 03:41:56;;;;;;;1.97;1.87;;;;;;;;;;5068091;28;20215;-66
2021/10/08 03:44:33;;;;;;;2.10;1.93;;;;;;;;;;5063940;28;20699;-66
2021/10/08 03:47:38;;;;;;;2.10;2.00;;;;;;;;;;5067491;28;20245;-66
2021/10/08 03:49:56;;;;;;;1.97;1.87;;;;;;;;;;5063855;28;20240;-66
2021/10/08 03:52:29;;;;;;;2.57;2.07;;;;;;;;;;5063947;28;20225;-65
2021/10/08 03:55:01;;;;;;;2.10;2.00;;;;;;;;;;5053681;28;20222;-65
2021/10/08 03:57:30;;;;;;;2.10;1.90;;;;;;;;;;5072359;28;20419;-66
2021/10/08 04:00:01;;;;;;;2.03;1.93;;;;;;;;;;5066671;28;20218;-67
2021/10/08 04:02:31;;;;;;;2.40;2.20;;;;;;;;;;5063873;28;20218;-66
2021/10/08 04:05:04;;;;;;;2.17;1.97;;;;;;;;;;5069348;28;20219;-69
2021/10/08 04:07:37;;;;;;;2.77;1.90;;;;;;;;;;5062298;28;20232;-67
2021/10/08 04:10:09;;;;;;;1.70;1.60;;;;;;;;;;5066947;28;20214;-66
2021/10/08 04:12:36;;;;;;;2.17;1.90;;;;;;;;;;5062984;28;20219;-67
2021/10/08 04:15:08;;;;;;;2.10;1.70;;;;;;;;;;5074492;28;20251;-66
2021/10/08 04:17:37;;;;;;;1.80;1.70;;;;;;;;;;5067648;28;20561;-66
2021/10/08 04:20:09;;;;;;;1.83;1.73;;;;;;;;;;5065993;28;20211;-66
2021/10/08 04:22:38;;;;;;;1.93;1.83;;;;;;;;;;5075642;28;20225;-66
2021/10/08 04:25:10;;;;;;;2.20;2.00;;;;;;;;;;5068633;28;20211;-66
2021/10/08 04:27:41;;;;;;;1.70;1.60;;;;;;;;;;5061705;28;20240;-66
2021/10/08 04:30:12;;;;;;;1.80;1.70;;;;;;;;;;5066896;28;20208;-67
2021/10/08 04:32:43;;;;;;;1.70;1.60;;;;;;;;;;5060819;28;20213;-66
2021/10/08 04:35:16;;;;;;;1.63;1.53;;;;;;;;;;5067633;28;20278;-66
2021/10/08 04:37:47;;;;;;;1.70;1.60;;;;;;;;;;5064070;28;20270;-67
2021/10/08 04:40:17;;;;;;;1.70;1.60;;;;;;;;;;5064660;28;20205;-67
2021/10/08 04:42:49;;;;;;;1.80;1.70;;;;;;;;;;5062242;28;20208;-67
2021/10/08 04:45:18;;;;;;;1.53;1.43;;;;;;;;;;5033238;28;20646;-66
2021/10/08 04:47:50;;;;;;;1.80;1.70;;;;;;;;;;5067865;28;20684;-67
2021/10/08 04:50:22;;;;;;;1.93;1.57;;;;;;;;;;5061619;28;20213;-67
2021/10/08 04:52:51;;;;;;;1.57;1.47;;;;;;;;;;5065489;28;20606;-66
2021/10/08 04:55:22;;;;;;;1.70;1.60;;;;;;;;;;5063362;28;20677;-67
2021/10/08 04:57:52;;;;;;;1.70;1.60;;;;;;;;;;5049706;28;20246;-67
2021/10/08 05:00:23;;;;;;;2.07;1.80;;;;;;;;;;5050244;28;20216;-67
2021/10/08 05:02:57;;;;;;;2.67;1.60;;;;;;;;;;5067729;28;20246;-67
2021/10/08 05:05:27;;;;;;;1.60;1.50;;;;;;;;;;5068580;28;20277;-67
2021/10/08 05:07:56;;;;;;;1.70;1.60;;;;;;;;;;5049768;28;20231;-67
2021/10/08 05:10:27;;;;;;;1.93;1.70;;;;;;;;;;5066352;28;20646;-67
2021/10/08 05:12:59;;;;;;;1.37;1.27;;;;;;;;;;5072883;28;20330;-67
2021/10/08 05:15:32;;;;;;;1.60;1.50;;;;;;;;;;5072973;28;20236;-67
2021/10/08 05:18:01;;;;;;;1.77;1.67;;;;;;;;;;5074857;28;20219;-66
2021/10/08 05:20:32;;;;;;;2.13;1.27;;;;;;;;;;5054240;28;20246;-67
2021/10/08 05:23:03;;;;;;;2.20;2.00;;;;;;;;;;5049122;28;20718;-67
2021/10/08 05:25:35;;;;;;;4.10;2.50;;;;;;;;;;5071411;28;20215;-67
2021/10/08 05:28:04;;;;;;;8.03;3.20;;;;;;;;;;5070652;28;20273;-67
2021/10/08 05:30:33;;;;;;;8.07;3.90;;;;;;;;;;5065872;28;20214;-66
2021/10/08 05:33:06;;;;;;;10.30;4.27;;;;;;;;;;5069926;28;20213;-66
2021/10/08 05:35:38;;;;;;;10.60;4.23;;;;;;;;;;5049183;28;20217;-66
2021/10/08 05:38:08;;;;;;;9.17;3.90;;;;;;;;;;5067181;28;20984;-67
2021/10/08 05:41:03;;;;;;;9.13;3.87;;;;;;;;;;5055333;28;20234;-66
2021/10/08 05:43:36;;;;;;;8.53;3.80;;;;;;;;;;5067028;28;20217;-65
2021/10/08 05:46:06;;;;;;;11.07;4.27;;;;;;;;;;5078329;28;20219;-66
2021/10/08 05:48:38;;;;;;;10.40;4.07;;;;;;;;;;5065558;28;20216;-65
2021/10/08 05:51:08;;;;;;;12.50;4.30;;;;;;;;;;5065841;28;20216;-65
2021/10/08 05:53:39;;;;;;;10.77;4.27;;;;;;;;;;5049057;28;20272;-65
2021/10/08 05:56:09;;;;;;;8.17;4.27;;;;;;;;;;5043131;28;20313;-66
2021/10/08 05:58:42;;;;;;;8.07;3.80;;;;;;;;;;5040707;28;20210;-65
2021/10/08 06:01:11;;;;;;;7.47;3.33;;;;;;;;;;5069538;28;20214;-68
2021/10/08 06:03:44;;;;;;;7.90;4.03;;;;;;;;;;5075836;28;20224;-68
2021/10/08 06:06:15;;;;;;;6.20;3.50;;;;;;;;;;5071616;28;20226;-68
2021/10/08 06:08:47;;;;;;;6.07;3.37;;;;;;;;;;5066492;28;20240;-67
2021/10/08 06:11:18;;;;;;;5.70;2.97;;;;;;;;;;5052460;28;20764;-67
2021/10/08 06:14:02;;;;;;;4.90;3.20;;;;;;;;;;5055192;28;20323;-67
2021/10/08 06:16:36;;;;;;;4.43;3.37;;;;;;;;;;5073358;28;20230;-65
2021/10/08 06:19:07;;;;;;;5.83;3.03;;;;;;;;;;5065327;28;20310;-65
2021/10/08 06:21:38;;;;;;;3.87;3.00;;;;;;;;;;5072787;28;20207;-67
2021/10/08 06:24:08;;;;;;;5.40;2.67;;;;;;;;;;5067968;28;20219;-67
2021/10/08 06:26:37;;;;;;;5.03;2.90;;;;;;;;;;5069762;28;20610;-66
2021/10/08 06:29:09;;;;;;;6.07;2.73;;;;;;;;;;5066795;28;20205;-67
2021/10/08 06:31:40;;;;;;;10.90;2.70;;;;;;;;;;5062425;28;20234;-67
2021/10/08 06:34:23;;;;;;;8.23;3.00;;;;;;;;;;5051256;28;20638;-66
2021/10/08 06:37:06;;;;;;;5.13;3.07;;;;;;;;;;5063395;28;20303;-67
2021/10/08 06:39:36;;;;;;;7.57;3.10;;;;;;;;;;5069515;28;20631;-67
2021/10/08 06:42:07;;;;;;;5.83;3.30;;;;;;;;;;5057915;28;20242;-63
2021/10/08 06:44:39;;;;;;;6.70;2.90;;;;;;;;;;5059498;28;20326;-63
2021/10/08 06:47:09;;;;;;;6.67;3.10;;;;;;;;;;5074321;28;20244;-64
2021/10/08 06:49:39;;;;;;;5.73;2.80;;;;;;;;;;5071043;28;20208;-63
2021/10/08 06:52:08;;;;;;;3.77;2.60;;;;;;;;;;5033055;28;20757;-63
2021/10/08 06:54:40;;;;;;;6.70;3.23;;;;;;;;;;5047521;28;20221;-65
2021/10/08 06:57:11;;;;;;;3.90;2.70;;;;;;;;;;5086745;28;20240;-70
2021/10/08 06:59:40;;;;;;;5.27;3.03;;;;;;;;;;5072009;28;20829;-68
2021/10/08 07:02:09;;;;;;;6.43;3.70;;;;;;;;;;5056816;28;20768;-68
2021/10/08 07:04:41;;;;;;;5.07;2.93;;;;;;;;;;5066937;28;20213;-68
2021/10/08 07:07:14;;;;;;;6.40;2.93;;;;;;;;;;5071646;28;20663;-71
2021/10/08 07:09:46;;;;;;;4.57;2.77;;;;;;;;;;5083444;28;20611;-70
2021/10/08 07:12:17;;;;;;;7.47;2.40;;;;;;;;;;5078076;28;20225;-70
2021/10/08 07:14:54;;;;;;;4.17;3.00;;;;;;;;;;5050349;28;20200;-69
2021/10/08 07:17:46;;;;;;;4.90;2.73;;;;;;;;;;5053389;28;20224;-68
2021/10/08 07:20:23;;;;;;;3.30;2.30;;;;;;;;;;5050291;28;20214;-66
2021/10/08 07:22:53;;;;;;;3.83;2.50;;;;;;;;;;5066630;28;20277;-66
2021/10/08 07:25:25;;;;;;;3.10;1.80;;;;;;;;;;5070014;28;20636;-66
2021/10/08 07:27:57;;;;;;;8.20;1.80;;;;;;;;;;5052846;28;20199;-68
2021/10/08 07:30:28;;;;;;;2.80;2.00;;;;;;;;;;5052268;28;20264;-67
2021/10/08 07:33:15;;;;;;;7.10;2.40;;;;;;;;;;5070781;28;20656;-68
2021/10/08 07:35:47;;;;;;;1.97;1.73;;;;;;;;;;5069913;28;20215;-70
2021/10/08 07:38:16;;;;;;;2.00;1.77;;;;;;;;;;5069283;28;20219;-70
2021/10/08 07:40:47;;;;;;;2.13;1.90;;;;;;;;;;5071214;28;20244;-69
2021/10/08 07:43:21;;;;;;;4.03;1.83;;;;;;;;;;5065812;28;20273;-69
2021/10/08 07:45:50;;;;;;;2.37;1.90;;;;;;;;;;5069314;28;20205;-67
2021/10/08 07:48:24;;;;;;;3.37;1.97;;;;;;;;;;5068314;28;20351;-68
2021/10/08 07:50:54;;;;;;;4.17;2.00;;;;;;;;;;5074862;28;20279;-68
2021/10/08 07:53:25;;;;;;;2.53;1.80;;;;;;;;;;5065833;28;20202;-67
2021/10/08 07:55:56;;;;;;;3.20;1.90;;;;;;;;;;5052371;28;20226;-68
2021/10/08 07:58:28;;;;;;;2.90;1.83;;;;;;;;;;5062261;28;20296;-67
2021/10/08 08:01:02;;;;;;;2.10;1.70;;;;;;;;;;5063812;28;20213;-68
2021/10/08 08:03:32;;;;;;;1.90;1.70;;;;;;;;;;5066577;28;20207;-68
2021/10/08 08:06:07;;;;;;;2.10;1.60;;;;;;;;;;5070744;28;20202;-69
2021/10/08 08:08:38;;;;;;;3.07;1.97;;;;;;;;;;5058612;28;20223;-67
2021/10/08 08:11:08;;;;;;;2.73;1.77;;;;;;;;;;5070072;28;20492;-67
2021/10/08 08:13:38;;;;;;;2.10;1.63;;;;;;;;;;5051677;28;20621;-66
2021/10/08 08:16:20;;;;;;;2.17;1.50;;;;;;;;;;5052974;28;20310;-66
2021/10/08 08:18:52;;;;;;;2.33;1.90;;;;;;;;;;5065134;28;20201;-67
2021/10/08 08:21:31;;;;;;;1.73;1.63;;;;;;;;;;5060725;28;20538;-67
2021/10/08 08:24:02;;;;;;;3.63;1.60;;;;;;;;;;5052008;28;20627;-68
2021/10/08 08:26:31;;;;;;;1.93;1.70;;;;;;;;;;5077182;28;20190;-68
2021/10/08 08:29:08;;;;;;;1.97;1.63;;;;;;;;;;5060576;28;20198;-69
2021/10/08 08:31:37;;;;;;;2.23;1.80;;;;;;;;;;5073219;28;20205;-67
2021/10/08 08:34:08;;;;;;;1.67;1.40;;;;;;;;;;5068809;28;20228;-67
2021/10/08 08:36:36;;;;;;;6.10;1.77;;;;;;;;;;5065736;28;20793;-70
2021/10/08 08:39:09;;;;;;;3.13;1.87;;;;;;;;;;5050109;28;20198;-67
2021/10/08 08:41:43;;;;;;;1.77;1.40;;;;;;;;;;5077105;28;20209;-68
2021/10/08 08:44:17;;;;;;;2.70;1.67;;;;;;;;;;5071923;28;20213;-68
2021/10/08 08:46:58;;;;;;;1.87;1.50;;;;;;;;;;5073931;28;20292;-68
2021/10/08 08:49:31;;;;;;;3.67;1.60;;;;;;;;;;5057155;28;20194;-67
2021/10/08 08:52:05;;;;;;;2.17;1.60;;;;;;;;;;5071103;28;20207;-66
2021/10/08 08:54:39;;;;;;;2.80;1.77;;;;;;;;;;5067983;28;20672;-66
2021/10/08 08:57:25;;;;;;;2.10;1.73;;;;;;;;;;5071270;28;20936;-68
2021/10/08 09:00:16;;;;;;;1.63;1.50;;;;;;;;;;5088866;28;20624;-67
2021/10/08 09:02:59;;;;;;;1.93;1.73;;;;;;;;;;5070329;28;20288;-67
2021/10/08 09:05:36;;;;;;;2.00;1.80;;;;;;;;;;5091684;28;20271;-66
2021/10/08 09:08:08;;;;;;;2.17;1.97;;;;;;;;;;5075752;28;20224;-66
2021/10/08 09:10:45;;;;;;;4.37;2.13;;;;;;;;;;5103346;28;20228;-65
2021/10/08 09:13:21;;;;;;;3.57;1.97;;;;;;;;;;5087299;28;20236;-65
2021/10/08 09:16:06;;;;;;;1.60;1.50;;;;;;;;;;5079154;28;20296;-67
2021/10/08 09:18:49;;;;;;;1.77;1.63;;;;;;;;;;5075771;28;20201;-67
2021/10/08 09:21:21;;;;;;;2.23;1.70;;;;;;;;;;5098042;28;20211;-68
2021/10/08 09:23:50;;;;;;;3.47;2.10;;;;;;;;;;5096192;28;20211;-68
2021/10/08 09:26:27;;;;;;;2.73;1.70;;;;;;;;;;5091773;28;20275;-69
2021/10/08 09:28:58;;;;;;;1.97;1.70;;;;;;;;;;5088890;28;20802;-70
2021/10/08 09:31:37;;;;;;;2.13;1.93;;;;;;;;;;5089127;28;20223;-67
2021/10/08 09:34:21;;;;;;;3.43;2.20;;;;;;;;;;5091818;28;20193;-66
2021/10/08 09:36:59;;;;;;;1.97;1.73;;;;;;;;;;5069928;28;20269;-66
2021/10/08 09:39:40;;;;;;;2.03;1.77;;;;;;;;;;5080695;28;20197;-66
2021/10/08 09:42:12;;;;;;;1.90;1.67;;;;;;;;;;5088019;28;20208;-67
2021/10/08 09:44:46;;;;;;;2.03;1.87;;;;;;;;;;5086302;28;20580;-69
2021/10/08 09:47:21;;;;;;;1.87;1.77;;;;;;;;;;5089913;28;20200;-68
2021/10/08 09:49:52;;;;;;;2.17;1.97;;;;;;;;;;5089771;28;20254;-68
2021/10/08 09:52:31;;;;;;;2.47;2.20;;;;;;;;;;5084140;28;20204;-69
2021/10/08 09:55:06;;;;;;;2.60;2.10;;;;;;;;;;5073676;28;20245;-69
2021/10/08 09:57:59;;;;;;;2.30;2.10;;;;;;;;;;5076236;28;20277;-70
2021/10/08 10:00:42;;;;;;;2.17;1.67;;;;;;;;;;5061183;28;20331;-67
2021/10/08 10:03:14;;;;;;;2.03;1.93;;;;;;;;;;5055064;28;20209;-67
2021/10/08 10:05:45;;;;;;;4.17;2.27;;;;;;;;;;5067380;28;20521;-65
2021/10/08 10:08:16;;;;;;;2.40;2.20;;;;;;;;;;5050944;28;20253;-65
2021/10/08 10:10:59;;;;;;;2.60;2.40;;;;;;;;;;5066157;28;20284;-68
2021/10/08 10:13:31;;;;;;;5.20;2.53;;;;;;;;;;5061559;28;20185;-68
2021/10/08 10:16:04;;;;;;;3.47;2.50;;;;;;;;;;5066420;28;20225;-68
2021/10/08 10:18:37;;;;;;;3.43;2.40;;;;;;;;;;5063249;28;20216;-67
2021/10/08 10:21:10;;;;;;;3.67;2.37;;;;;;;;;;5068898;28;20206;-66
2021/10/08 10:23:52;;;;;;;3.07;2.80;;;;;;;;;;5066997;28;20210;-66
2021/10/08 10:26:26;;;;;;;3.43;2.50;;;;;;;;;;5051716;28;20232;-66
2021/10/08 10:28:55;;;;;;;2.53;2.33;;;;;;;;;;5067618;28;20860;-66
2021/10/08 10:31:26;;;;;;;2.83;2.63;;;;;;;;;;5064447;28;20202;-66
2021/10/08 10:34:00;;;;;;;2.80;2.60;;;;;;;;;;5069335;28;20631;-66
2021/10/08 10:36:39;;;;;;;3.10;2.80;;;;;;;;;;5067979;28;20547;-65
2021/10/08 10:39:21;;;;;;;3.00;2.80;;;;;;;;;;5083206;28;20217;-65
2021/10/08 10:42:03;;;;;;;3.30;3.00;;;;;;;;;;5072155;28;20193;-67
2021/10/08 10:44:43;;;;;;;3.10;2.90;;;;;;;;;;5066216;28;20600;-67
2021/10/08 10:47:31;;;;;;;3.53;3.00;;;;;;;;;;5083847;28;20695;-66
2021/10/08 10:50:24;;;;;;;3.63;3.30;;;;;;;;;;5067938;28;20231;-66
2021/10/08 10:53:05;;;;;;;4.00;3.63;;;;;;;;;;5052760;28;20663;-66
2021/10/08 10:55:36;;;;;;;3.53;3.23;;;;;;;;;;5069816;28;20210;-66
2021/10/08 10:58:18;;;;;;;4.37;3.97;;;;;;;;;;5068647;28;20653;-65
2021/10/08 11:01:05;;;;;;;3.50;3.17;;;;;;;;;;5069567;28;20194;-65
2021/10/08 11:03:53;;;;;;;3.93;3.53;;;;;;;;;;5068067;28;20198;-65
2021/10/08 11:06:24;;;;;;;3.93;3.40;;;;;;;;;;5068514;28;20231;-67
2021/10/08 11:09:04;;;;;;;4.03;3.50;;;;;;;;;;5059425;28;20260;-66
2021/10/08 11:11:32;;;;;;;4.33;3.93;;;;;;;;;;5069260;28;20207;-65
2021/10/08 11:14:21;;;;;;;4.20;3.80;;;;;;;;;;5069041;28;20239;-65
2021/10/08 11:16:49;;;;;;;4.03;3.63;;;;;;;;;;5064417;28;20248;-65
2021/10/08 11:19:49;;;;;;;4.00;3.60;;;;;;;;;;5065361;28;20244;-65
2021/10/08 11:22:50;;;;;;;3.80;3.50;;;;;;;;;;5056295;28;20202;-68
2021/10/08 11:25:24;;;;;;;3.60;3.30;;;;;;;;;;5070454;28;20190;-66
2021/10/08 11:27:58;;;;;;;4.50;4.10;;;;;;;;;;5030486;28;20202;-65
2021/10/08 11:30:29;;;;;;;4.17;3.70;;;;;;;;;;5063686;28;20226;-71
2021/10/08 11:33:01;;;;;;;3.70;3.37;;;;;;;;;;5066067;28;20256;-69
2021/10/08 11:35:33;;;;;;;3.97;3.27;;;;;;;;;;5083441;28;20194;-67
2021/10/08 11:38:09;;;;;;;3.87;3.40;;;;;;;;;;5067558;28;20228;-69
2021/10/08 11:40:46;;;;;;;3.57;3.27;;;;;;;;;;5067014;28;20189;-69
2021/10/08 11:43:35;;;;;;;3.60;3.13;;;;;;;;;;5066693;28;20277;-69
2021/10/08 11:46:33;;;;;;;3.83;2.97;;;;;;;;;;5069164;28;20512;-68
2021/10/08 11:49:24;;;;;;;3.67;3.10;;;;;;;;;;5068258;28;20193;-67
2021/10/08 11:51:57;;;;;;;3.73;3.37;;;;;;;;;;5066299;28;20689;-67
2021/10/08 11:54:25;;;;;;;3.40;3.10;;;;;;;;;;5050567;28;20197;-67
2021/10/08 11:57:04;;;;;;;3.70;3.40;;;;;;;;;;5047450;28;20241;-68
2021/10/08 11:59:39;;;;;;;2.93;2.73;;;;;;;;;;5083203;28;20217;-69
2021/10/08 12:02:11;;;;;;;2.83;2.63;;;;;;;;;;5065977;28;20204;-68
2021/10/08 12:05:01;;;;;;;6.63;3.50;;;;;;;;;;5071658;28;20208;-70
2021/10/08 12:07:36;;;;;;;3.23;2.97;;;;;;;;;;5050771;28;20206;-73
2021/10/08 12:10:12;;;;;;;3.10;2.83;;;;;;;;;;5059008;28;20196;-72
2021/10/08 12:12:59;;;;;;;3.00;2.70;;;;;;;;;;5050793;28;20265;-70
2021/10/08 12:15:32;;;;;;;2.67;2.47;;;;;;;;;;5070630;28;20210;-69
2021/10/08 12:18:05;;;;;;;2.90;2.57;;;;;;;;;;5068213;28;20228;-68
2021/10/08 12:20:35;;;;;;;13.93;2.40;;;;;;;;;;5062931;28;20651;-68
2021/10/08 12:23:20;;;;;;;2.97;2.33;;;;;;;;;;5067188;28;20261;-68
2021/10/08 12:25:56;;;;;;;2.50;2.27;;;;;;;;;;5064533;28;20204;-67
2021/10/08 12:28:28;;;;;;;2.60;2.40;;;;;;;;;;5061306;28;20190;-68
2021/10/08 12:31:12;;;;;;;2.67;2.40;;;;;;;;;;5058022;28;20240;-67
2021/10/08 12:33:48;;;;;;;2.53;2.33;;;;;;;;;;5068611;28;20189;-67
2021/10/08 12:36:33;;;;;;;2.07;1.87;;;;;;;;;;5051192;28;20269;-70
2021/10/08 12:39:11;;;;;;;2.37;2.17;;;;;;;;;;5054601;28;20229;-71
2021/10/08 12:41:50;;;;;;;2.30;2.10;;;;;;;;;;5067763;28;20185;-68
2021/10/08 12:44:23;;;;;;;2.60;2.40;;;;;;;;;;5065594;28;20200;-69
2021/10/08 12:47:24;;;;;;;2.83;1.97;;;;;;;;;;5066857;28;20208;-70
2021/10/08 12:50:01;;;;;;;1.90;1.80;;;;;;;;;;5067571;28;20197;-70
2021/10/08 12:52:41;;;;;;;2.47;2.20;;;;;;;;;;5040418;28;20598;-67
2021/10/08 12:55:31;;;;;;;2.70;2.20;;;;;;;;;;5062357;28;20539;-66
2021/10/08 12:58:23;;;;;;;2.10;1.90;;;;;;;;;;5084739;28;20248;-69
2021/10/08 13:00:59;;;;;;;3.53;1.63;;;;;;;;;;5067215;28;20208;-70
2021/10/08 13:03:50;;;;;;;1.90;1.80;;;;;;;;;;5064577;28;20213;-69
2021/10/08 13:06:25;;;;;;;2.00;1.70;;;;;;;;;;5066052;28;20209;-68
2021/10/08 13:09:13;;;;;;;1.80;1.67;;;;;;;;;;5063640;28;20209;-65
2021/10/08 13:11:53;;;;;;;2.27;2.07;;;;;;;;;;5068304;28;20828;-66
2021/10/08 13:14:26;;;;;;;2.17;1.73;;;;;;;;;;5061854;28;20218;-66
2021/10/08 13:16:58;;;;;;;2.03;1.93;;;;;;;;;;5068309;28;20202;-66
2021/10/08 13:19:32;;;;;;;2.20;2.00;;;;;;;;;;5063205;28;20692;-66
2021/10/08 13:22:07;;;;;;;1.97;1.67;;;;;;;;;;5064966;28;20524;-65
2021/10/08 13:24:37;;;;;;;1.83;1.73;;;;;;;;;;5064886;28;20225;-63
2021/10/08 13:27:11;;;;;;;2.03;1.93;;;;;;;;;;5065931;28;20228;-64
2021/10/08 13:29:39;;;;;;;2.27;1.83;;;;;;;;;;5068223;28;20212;-64
2021/10/08 13:32:10;;;;;;;2.40;2.20;;;;;;;;;;5067478;28;20303;-65
2021/10/08 13:34:42;;;;;;;2.13;1.93;;;;;;;;;;5067761;28;20601;-65
2021/10/08 13:37:12;;;;;;;2.70;2.07;;;;;;;;;;5077605;28;20197;-66
2021/10/08 13:39:44;;;;;;;1.73;1.63;;;;;;;;;;5053999;28;20742;-68
2021/10/08 13:42:14;;;;;;;3.20;1.80;;;;;;;;;;5065457;28;20213;-69
2021/10/08 13:44:46;;;;;;;2.13;1.87;;;;;;;;;;5069831;28;20211;-69
2021/10/08 13:47:18;;;;;;;5.50;2.10;;;;;;;;;;5073519;28;20214;-71
2021/10/08 13:50:10;;;;;;;2.00;1.80;;;;;;;;;;5057896;28;20641;-71
2021/10/08 13:52:51;;;;;;;2.03;1.87;;;;;;;;;;5067117;28;20208;-71
2021/10/08 13:55:22;;;;;;;1.80;1.70;;;;;;;;;;5081495;28;20224;-69
2021/10/08 13:57:54;;;;;;;1.90;1.70;;;;;;;;;;5062267;28;20739;-68
2021/10/08 14:00:25;;;;;;;2.37;1.87;;;;;;;;;;5071460;28;20589;-68
2021/10/08 14:03:20;;;;;;;2.70;2.00;;;;;;;;;;5047553;28;20861;-67
2021/10/08 14:11:36;;;;;;;3.60;1.63;;;;;;;;;;5070829;28;20267;-69
2021/10/08 14:14:08;;;;;;;2.00;1.50;;;;;;;;;;5074677;28;20703;-67
2021/10/08 14:16:36;;;;;;;1.70;1.60;;;;;;;;;;5068379;28;20200;-69
2021/10/08 14:19:09;;;;;;;2.87;1.47;;;;;;;;;;5067660;28;20918;-66
2021/10/08 14:21:39;;;;;;;1.50;1.40;;;;;;;;;;5070966;28;20206;-64
2021/10/08 14:24:09;;;;;;;2.00;1.73;;;;;;;;;;5047083;28;20201;-63
2021/10/08 14:26:51;;;;;;;1.40;1.30;;;;;;;;;;5043656;28;20296;-66
2021/10/08 14:29:35;;;;;;;2.53;1.77;;;;;;;;;;5058544;28;20204;-66
2021/10/08 14:32:06;;;;;;;1.67;1.57;;;;;;;;;;5053844;28;20210;-66
2021/10/08 14:34:38;;;;;;;2.83;1.67;;;;;;;;;;5066418;28;20670;-67
2021/10/08 14:37:21;;;;;;;1.60;1.50;;;;;;;;;;5066809;28;20312;-66
2021/10/08 14:39:56;;;;;;;2.17;2.00;;;;;;;;;;5043364;28;20267;-66
2021/10/08 14:42:29;;;;;;;1.63;1.53;;;;;;;;;;5067883;28;20236;-66
2021/10/08 14:45:01;;;;;;;2.10;1.50;;;;;;;;;;5069112;28;20203;-66
2021/10/08 14:47:30;;;;;;;1.77;1.67;;;;;;;;;;5069478;28;20202;-66
2021/10/08 14:50:00;;;;;;;1.87;1.50;;;;;;;;;;5066717;28;20197;-66
2021/10/08 14:52:31;;;;;;;1.50;1.40;;;;;;;;;;5067909;28;20228;-67
2021/10/08 15:00:21;;;;;;;1.43;1.33;;;;;;;;;;5083175;28;21527;-66
2021/10/08 15:03:09;;;;;;;1.40;1.20;;;;;;;;;;5092190;28;20212;-66
2021/10/08 15:05:45;;;;;;;1.40;1.30;;;;;;;;;;5087389;28;20197;-66
2021/10/08 15:08:17;;;;;;;1.40;1.30;;;;;;;;;;5083414;28;20208;-66
2021/10/08 15:10:53;;;;;;;1.87;1.40;;;;;;;;;;5086465;28;20219;-63
2021/10/08 15:13:25;;;;;;;1.50;1.37;;;;;;;;;;5089118;28;20188;-63
2021/10/08 15:15:56;;;;;;;1.50;1.40;;;;;;;;;;5087227;28;20258;-66
2021/10/08 15:18:41;;;;;;;1.33;1.23;;;;;;;;;;5094316;28;20256;-67
2021/10/08 15:21:12;;;;;;;1.40;1.23;;;;;;;;;;5085785;28;20208;-66
2021/10/08 15:23:39;;;;;;;1.53;1.40;;;;;;;;;;5057435;28;20211;-66
2021/10/08 15:26:10;;;;;;;1.27;1.17;;;;;;;;;;5085713;28;20194;-63
2021/10/08 15:28:43;;;;;;;1.20;1.10;;;;;;;;;;5080807;28;20206;-64
2021/10/08 15:31:16;;;;;;;1.00;1.00;;;;;;;;;;5083560;28;20217;-63
2021/10/08 15:33:48;;;;;;;1.50;1.40;;;;;;;;;;5084561;28;20243;-64
2021/10/08 15:36:17;;;;;;;3.93;1.50;;;;;;;;;;5084862;28;20201;-63